Mosquero, New Mexico
Current Conditions -  °F | °C
As of 8:53 PM on Wednesday 26 Nov 2014 (Local Time) from KTCC Reporting Station
Clear Clear  
Wind Chill: 27°   Ceiling: Unl
Heat Index: 34°   Visibility: 10mi
Dew Point: 26°   Wind: 8mph
Humidity: 73%   Direction: 60°ENE
Pressure: 30.34"   Gusts: NA
Location:  35.78°N, 103.96°W
Report Text: KTCC 270353Z AUTO 06007KT 10SM CLR 01/M03 A3034 RMK AO2 SLP279 T00111033
Loading
Personal Weather Stations






























Interactive Weather Map New forecast layout! Learn more

10-Day Weather Forecast

Advertisements
Track Severe Weather on mobile